EDW387 LIEO-LSZH
Flight info
| Callsign | EDW387 |
|---|---|
| Flight time | N/A |
| Altitude | 38000 |
| Route | OKIVA P980 DIKEL DCT RATAP DCT MEGER DCT OLETI DCT CANNE Z651 KELIP |
| Aircraft | A320/M-SDE3FGHIRWY/LB1 |
Departure
| Time | N/A |
|---|---|
| Airport | Olbia Costa Smeralda Airport (LIEO) |
Arrival
| Time | 2026-05-05 16:25 |
|---|---|
| Airport | Zürich Airport (LSZH) |
| Time | Latitude | Longitude | Altitude | Speed | Heading |
|---|---|---|---|---|---|
| 2026-05-05 16:16 | 47.50246 | 8.08291 | 8599 ft | 280 kts | 288° |
| 2026-05-05 16:16 | 47.53211 | 8.04821 | 8051 ft | 290 kts | 349° |
| 2026-05-05 16:17 | 47.56722 | 8.07129 | 7496 ft | 286 kts | 58° |
| 2026-05-05 16:17 | 47.57366 | 8.09818 | 7220 ft | 270 kts | 91° |
| 2026-05-05 16:18 | 47.56357 | 8.14660 | 6691 ft | 236 kts | 122° |
| 2026-05-05 16:18 | 47.55781 | 8.16886 | 6412 ft | 230 kts | 108° |
| 2026-05-05 16:18 | 47.55860 | 8.21426 | 5894 ft | 214 kts | 76° |
| 2026-05-05 16:19 | 47.56389 | 8.23363 | 5612 ft | 197 kts | 66° |
| 2026-05-05 16:19 | 47.56935 | 8.25159 | 5357 ft | 181 kts | 68° |
| 2026-05-05 16:19 | 47.57930 | 8.28471 | 4839 ft | 172 kts | 67° |
| 2026-05-05 16:20 | 47.58901 | 8.31722 | 4290 ft | 176 kts | 67° |
| 2026-05-05 16:20 | 47.59760 | 8.35028 | 3719 ft | 165 kts | 84° |
| 2026-05-05 16:21 | 47.59313 | 8.38161 | 3173 ft | 151 kts | 125° |
| 2026-05-05 16:22 | 47.57073 | 8.41460 | 4163 ft | 155 kts | 143° |
| 2026-05-05 16:22 | 47.55378 | 8.43807 | 3610 ft | 176 kts | 140° |
| 2026-05-05 16:23 | 47.53693 | 8.46228 | 3062 ft | 158 kts | 143° |
| 2026-05-05 16:23 | 47.52874 | 8.47270 | 2870 ft | 152 kts | 141° |
| 2026-05-05 16:23 | 47.51329 | 8.49325 | 2322 ft | 148 kts | 140° |
| 2026-05-05 16:24 | 47.50621 | 8.50338 | 2043 ft | 141 kts | 137° |
| 2026-05-05 16:24 | 47.49878 | 8.51361 | 1855 ft | 149 kts | 149° |
| 2026-05-05 16:24 | 47.48345 | 8.53417 | 1509 ft | 144 kts | 141° |
| 2026-05-05 16:25 | 47.47633 | 8.54386 | 1398 ft | 129 kts | 139° |
| 2026-05-05 16:25 | 47.46805 | 8.55521 | 1401 ft | 35 kts | 137° |
| 2026-05-05 16:25 | 47.46704 | 8.55622 | 1402 ft | 23 kts | 151° |
| 2026-05-05 16:26 | 47.46418 | 8.55738 | 1401 ft | 9 kts | 166° |
| 2026-05-05 16:26 | 47.46366 | 8.55782 | 1400 ft | 2 kts | 142° |
| 2026-05-05 16:27 | 47.46347 | 8.55806 | 1402 ft | 13 kts | 139° |
| 2026-05-05 16:27 | 47.46316 | 8.55847 | 1401 ft | 0 kts | 137° |
| 2026-05-05 16:28 | 47.46285 | 8.55887 | 1402 ft | 16 kts | 144° |
| 2026-05-05 16:28 | 47.46232 | 8.55822 | 1398 ft | 12 kts | 267° |
| 2026-05-05 16:28 | 47.46245 | 8.55626 | 1397 ft | 17 kts | 278° |
| 2026-05-05 16:28 | 47.46223 | 8.55595 | 1400 ft | 4 kts | 152° |
| 2026-05-05 16:29 | 47.46199 | 8.55593 | 1397 ft | 0 kts | 184° |
| 2026-05-05 16:29 | 47.46198 | 8.55593 | 1397 ft | 1 kts | 184° |
| 2026-05-05 16:29 | 47.46181 | 8.55590 | 1397 ft | 0 kts | 185° |
| 2026-05-05 16:30 | 47.46181 | 8.55591 | 1397 ft | 0 kts | 185° |